Time;durP1;ratioP1;P1;durP2;ratioP2;P2;SDS_P1;SDS_P2;PMS_P1;PMS_P2;Temp;Humidity;BMP_temperature;BMP_pressure;BME280_temperature;BME280_humidity;BME280_pressure;Samples;Min_cycle;Max_cycle;Signal;HPM_P1;HPM_P2
2022/10/31 00:01:20;;;;;;;23.70;12.88;;;13.70;99.90;;;;;;5091983;28;20920;-71
2022/10/31 00:03:47;;;;;;;25.90;12.43;;;13.70;99.90;;;;;;5091488;28;20904;-73
2022/10/31 00:06:13;;;;;;;22.67;11.93;;;13.70;99.90;;;;;;5074824;28;20386;-72
2022/10/31 00:08:38;;;;;;;23.55;12.18;;;13.60;99.90;;;;;;5091686;28;20391;-71
2022/10/31 00:11:08;;;;;;;22.52;12.48;;;13.70;99.90;;;;;;5091797;28;20401;-73
2022/10/31 00:13:34;;;;;;;30.77;13.35;;;13.70;99.90;;;;;;5092669;28;20377;-72
2022/10/31 00:15:59;;;;;;;21.13;11.95;;;13.70;99.90;;;;;;5092741;28;20366;-73
2022/10/31 00:18:25;;;;;;;19.13;12.13;;;13.70;99.90;;;;;;5091473;28;20378;-72
2022/10/31 00:21:01;;;;;;;22.00;12.60;;;13.70;99.90;;;;;;5075771;28;20793;-74
2022/10/31 00:23:27;;;;;;;28.93;12.00;;;13.80;99.90;;;;;;5092142;28;20547;-72
2022/10/31 00:25:52;;;;;;;31.52;12.70;;;13.90;99.90;;;;;;5092498;28;20414;-71
2022/10/31 00:28:18;;;;;;;22.20;11.87;;;13.90;99.90;;;;;;5091212;28;20417;-73
2022/10/31 00:30:43;;;;;;;27.67;12.70;;;14.00;99.90;;;;;;5091982;28;20400;-72
2022/10/31 00:33:09;;;;;;;22.92;11.88;;;14.10;99.90;;;;;;5092058;28;20390;-72
2022/10/31 00:35:34;;;;;;;29.67;13.47;;;14.10;99.90;;;;;;5092580;28;20375;-72
2022/10/31 00:38:00;;;;;;;30.20;12.87;;;14.10;99.90;;;;;;5091802;28;20374;-73
2022/10/31 00:40:26;;;;;;;29.87;12.47;;;14.10;99.90;;;;;;5091328;28;20455;-71
2022/10/31 00:42:51;;;;;;;22.30;12.60;;;14.00;99.90;;;;;;5091146;28;20374;-71
2022/10/31 00:45:17;;;;;;;27.23;12.73;;;14.00;99.90;;;;;;5091099;28;20409;-70
2022/10/31 00:47:42;;;;;;;27.57;12.20;;;14.00;99.90;;;;;;5072879;28;20425;-73
2022/10/31 00:50:08;;;;;;;28.00;12.30;;;14.00;99.90;;;;;;5091236;28;20428;-73
2022/10/31 00:52:34;;;;;;;20.50;12.57;;;14.00;99.90;;;;;;5090768;28;20398;-72
2022/10/31 00:54:59;;;;;;;19.92;11.60;;;14.00;99.90;;;;;;5090941;28;20443;-71
2022/10/31 00:57:25;;;;;;;20.27;11.60;;;13.90;99.90;;;;;;5090793;28;20468;-71
2022/10/31 00:59:50;;;;;;;37.40;13.00;;;14.00;99.90;;;;;;5072983;28;20390;-71
2022/10/31 01:02:16;;;;;;;22.63;12.33;;;14.00;99.90;;;;;;5090568;28;20919;-71
2022/10/31 01:04:42;;;;;;;24.57;12.60;;;14.00;99.90;;;;;;5090884;28;20897;-72
2022/10/31 01:07:07;;;;;;;25.53;12.40;;;14.00;99.90;;;;;;5091102;28;20859;-71
2022/10/31 01:09:33;;;;;;;25.70;13.40;;;13.90;99.90;;;;;;5091919;28;20389;-72
2022/10/31 01:11:59;;;;;;;21.05;12.70;;;14.00;99.90;;;;;;5091400;28;20406;-72
2022/10/31 01:14:24;;;;;;;28.20;13.30;;;14.00;99.90;;;;;;5090844;28;20434;-72
2022/10/31 01:16:50;;;;;;;21.05;13.02;;;14.00;99.90;;;;;;5097529;28;20464;-73
2022/10/31 01:19:15;;;;;;;24.53;13.60;;;14.00;99.90;;;;;;5106403;28;20382;-72
2022/10/31 01:21:41;;;;;;;25.40;12.57;;;13.90;99.90;;;;;;5108461;28;20415;-73
2022/10/31 01:24:08;;;;;;;21.92;12.63;;;13.80;99.90;;;;;;5108886;28;20943;-72
2022/10/31 01:26:33;;;;;;;22.05;12.27;;;13.80;99.90;;;;;;5108088;28;20409;-72
2022/10/31 01:29:06;;;;;;;28.20;13.05;;;13.70;99.90;;;;;;5098806;28;20378;-72
2022/10/31 01:31:35;;;;;;;25.38;13.10;;;13.60;99.90;;;;;;5091193;28;20402;-72
2022/10/31 01:34:01;;;;;;;25.38;13.25;;;13.60;99.90;;;;;;5090542;28;20436;-72
2022/10/31 01:36:33;;;;;;;29.98;15.95;;;13.50;99.90;;;;;;5090841;28;20409;-73
2022/10/31 01:39:04;;;;;;;23.58;12.90;;;13.60;99.90;;;;;;5091252;28;20386;-73
2022/10/31 01:41:34;;;;;;;25.52;13.95;;;13.60;99.90;;;;;;5094579;28;20379;-73
2022/10/31 01:44:03;;;;;;;24.10;13.77;;;13.50;99.90;;;;;;5094820;28;20755;-73
2022/10/31 01:46:38;;;;;;;24.30;12.77;;;13.40;99.90;;;;;;5095131;28;20465;-73
2022/10/31 01:49:09;;;;;;;19.95;12.18;;;13.30;99.90;;;;;;5093960;28;20386;-73
2022/10/31 01:51:38;;;;;;;24.05;12.55;;;13.20;99.90;;;;;;5093943;28;20490;-73
2022/10/31 01:54:11;;;;;;;31.27;13.27;;;13.00;99.90;;;;;;5093778;28;20393;-73
2022/10/31 01:56:42;;;;;;;21.92;13.60;;;13.00;99.90;;;;;;5093859;28;20536;-73
2022/10/31 01:59:10;;;;;;;24.20;13.65;;;12.90;99.90;;;;;;5093799;28;20377;-72
2022/10/31 02:01:37;;;;;;;27.30;13.38;;;12.90;99.90;;;;;;5093617;28;20385;-73
2022/10/31 02:04:03;;;;;;;26.40;12.40;;;12.90;99.90;;;;;;5093499;28;20449;-72
2022/10/31 02:06:38;;;;;;;22.80;12.38;;;12.80;99.90;;;;;;5093571;28;20737;-70
2022/10/31 02:09:05;;;;;;;26.17;13.30;;;12.80;99.90;;;;;;5093421;28;20381;-72
2022/10/31 02:11:34;;;;;;;24.00;13.10;;;12.80;99.90;;;;;;5093298;28;20786;-72
2022/10/31 02:14:02;;;;;;;22.35;12.48;;;12.70;99.90;;;;;;5075474;28;20467;-72
2022/10/31 02:16:27;;;;;;;21.77;13.90;;;12.70;99.90;;;;;;5093518;28;20493;-72
2022/10/31 02:18:53;;;;;;;25.50;13.67;;;12.70;99.90;;;;;;5093401;28;20453;-72
2022/10/31 02:22:01;;;;;;;24.17;12.80;;;12.70;99.90;;;;;;5093515;28;20397;-73
2022/10/31 02:24:45;;;;;;;25.10;13.35;;;12.60;99.90;;;;;;4991592;28;20425;-72
2022/10/31 02:27:58;;;;;;;24.73;14.60;;;12.60;99.90;;;;;;4991658;28;20449;-71
2022/10/31 02:30:28;;;;;;;24.95;14.10;;;12.60;99.90;;;;;;5083516;28;20421;-71
2022/10/31 02:33:04;;;;;;;23.08;14.02;;;12.60;99.90;;;;;;5093492;28;20393;-71
2022/10/31 02:35:39;;;;;;;22.77;13.60;;;12.60;99.90;;;;;;5093470;28;20431;-71
2022/10/31 02:38:23;;;;;;;22.85;13.57;;;12.60;99.90;;;;;;5094073;28;20744;-71
2022/10/31 02:41:09;;;;;;;23.35;13.77;;;12.60;99.90;;;;;;5075934;28;20898;-74
2022/10/31 02:43:55;;;;;;;21.38;12.40;;;12.80;99.90;;;;;;5094729;28;20435;-74
2022/10/31 02:46:42;;;;;;;30.65;14.20;;;13.00;99.90;;;;;;5094017;28;20798;-72
2022/10/31 02:49:23;;;;;;;24.52;12.60;;;13.00;99.90;;;;;;5092945;28;20409;-71
2022/10/31 02:51:48;;;;;;;25.98;13.20;;;13.10;99.90;;;;;;5091754;28;20402;-71
2022/10/31 02:54:20;;;;;;;21.65;13.48;;;13.10;99.90;;;;;;5092985;28;20413;-71
2022/10/31 02:56:48;;;;;;;22.35;13.43;;;13.20;99.90;;;;;;5093844;28;20378;-71
2022/10/31 02:59:14;;;;;;;22.80;12.80;;;13.20;99.90;;;;;;5104371;28;20382;-71
2022/10/31 03:02:01;;;;;;;22.67;12.07;;;13.10;99.90;;;;;;5109810;28;20421;-71
2022/10/31 03:04:39;;;;;;;19.33;13.13;;;13.10;99.90;;;;;;5102513;28;20382;-72
2022/10/31 03:07:23;;;;;;;22.23;13.25;;;13.00;99.90;;;;;;5093873;28;20789;-71
2022/10/31 03:09:57;;;;;;;28.98;13.05;;;13.10;99.90;;;;;;5093362;28;20423;-73
2022/10/31 03:12:30;;;;;;;22.60;13.05;;;12.90;99.90;;;;;;5093475;28;20394;-72
2022/10/31 03:15:25;;;;;;;26.98;13.90;;;12.80;99.90;;;;;;5093689;28;20374;-73
2022/10/31 03:18:12;;;;;;;29.80;13.20;;;12.90;99.90;;;;;;5087441;28;20390;-72
2022/10/31 03:20:42;;;;;;;36.42;13.60;;;12.80;99.90;;;;;;5092828;28;20425;-72
2022/10/31 03:23:13;;;;;;;24.23;14.80;;;12.70;99.90;;;;;;5093030;28;20381;-73
2022/10/31 03:25:40;;;;;;;24.25;13.07;;;12.70;99.90;;;;;;5093169;28;20386;-73
2022/10/31 03:28:07;;;;;;;22.38;14.02;;;12.70;99.90;;;;;;5092638;28;20377;-72
2022/10/31 03:30:37;;;;;;;25.73;13.20;;;12.60;99.90;;;;;;5092349;28;20469;-73
2022/10/31 03:33:08;;;;;;;21.92;14.20;;;12.60;99.90;;;;;;5091793;28;20378;-72
2022/10/31 03:35:36;;;;;;;48.35;17.95;;;12.50;99.90;;;;;;5092254;28;20385;-72
2022/10/31 03:38:03;;;;;;;31.55;14.15;;;12.50;99.90;;;;;;5092194;28;20406;-72
2022/10/31 03:40:30;;;;;;;24.85;14.27;;;12.50;99.90;;;;;;5091919;28;20875;-72
2022/10/31 03:43:00;;;;;;;26.00;14.30;;;12.60;99.90;;;;;;5091634;28;20860;-73
2022/10/31 03:45:29;;;;;;;21.77;12.30;;;12.50;99.90;;;;;;5091937;28;20751;-71
2022/10/31 03:47:55;;;;;;;25.52;13.63;;;12.40;99.90;;;;;;5091829;28;20389;-73
2022/10/31 03:50:23;;;;;;;31.25;15.27;;;12.30;99.90;;;;;;5092205;28;20378;-71
2022/10/31 03:53:03;;;;;;;28.27;15.10;;;12.30;99.90;;;;;;5092112;28;20450;-73
2022/10/31 03:55:37;;;;;;;30.35;15.38;;;12.30;99.90;;;;;;5092434;28;20374;-74
2022/10/31 03:58:11;;;;;;;27.50;15.40;;;12.30;99.90;;;;;;5092447;28;20463;-72
2022/10/31 04:00:40;;;;;;;26.48;14.65;;;12.30;99.90;;;;;;5092102;28;20374;-72
2022/10/31 04:03:10;;;;;;;27.73;14.93;;;12.30;99.90;;;;;;5091084;28;20392;-73
2022/10/31 04:05:37;;;;;;;30.98;14.85;;;12.30;99.90;;;;;;5092099;28;20743;-70
2022/10/31 04:08:07;;;;;;;33.70;14.70;;;12.20;99.90;;;;;;5092010;28;20713;-72
2022/10/31 04:10:34;;;;;;;24.27;15.15;;;12.20;99.90;;;;;;5092057;28;20378;-73
2022/10/31 04:13:12;;;;;;;33.42;14.93;;;12.20;99.90;;;;;;5091624;28;20382;-73
2022/10/31 04:15:39;;;;;;;23.67;14.65;;;12.10;99.90;;;;;;5091992;28;20465;-73
2022/10/31 04:18:05;;;;;;;30.00;15.63;;;12.00;99.90;;;;;;5091985;28;20382;-72
2022/10/31 04:20:33;;;;;;;27.35;14.98;;;12.00;99.90;;;;;;5092008;28;20382;-72
2022/10/31 04:22:59;;;;;;;33.70;15.90;;;12.00;99.90;;;;;;5091152;28;20382;-71
2022/10/31 04:25:25;;;;;;;32.08;16.20;;;12.10;99.90;;;;;;5091343;28;20785;-73
2022/10/31 04:27:50;;;;;;;31.50;15.17;;;12.10;99.90;;;;;;5091241;28;20378;-73
2022/10/31 04:30:16;;;;;;;31.23;16.80;;;12.10;99.90;;;;;;5092457;28;20942;-73
2022/10/31 04:32:42;;;;;;;27.03;15.83;;;12.10;99.90;;;;;;5091664;28;20487;-74
2022/10/31 04:35:07;;;;;;;40.63;17.80;;;12.10;99.90;;;;;;5103016;28;20378;-73
2022/10/31 04:37:33;;;;;;;33.83;16.38;;;12.60;99.90;;;;;;5108629;28;20382;-72
2022/10/31 04:39:58;;;;;;;33.20;17.17;;;12.60;99.90;;;;;;5108901;28;20378;-73
2022/10/31 04:42:24;;;;;;;32.40;15.53;;;12.50;99.90;;;;;;5099138;28;20397;-73
2022/10/31 04:44:49;;;;;;;26.33;15.03;;;12.40;99.90;;;;;;5092647;28;20819;-70
2022/10/31 04:47:15;;;;;;;27.90;16.75;;;12.40;99.90;;;;;;5091979;28;20881;-71
2022/10/31 04:49:40;;;;;;;34.23;17.47;;;12.40;99.90;;;;;;5091978;28;20882;-73
2022/10/31 04:52:07;;;;;;;37.07;17.50;;;12.40;99.90;;;;;;5092764;28;20951;-73
2022/10/31 04:54:33;;;;;;;32.80;17.80;;;12.50;99.90;;;;;;5093333;28;20434;-70
2022/10/31 04:56:58;;;;;;;34.23;16.10;;;12.70;99.90;;;;;;5093109;28;20464;-73
2022/10/31 04:59:24;;;;;;;30.40;16.23;;;12.60;99.90;;;;;;5091626;28;20385;-72
2022/10/31 05:01:49;;;;;;;30.45;16.65;;;12.50;99.90;;;;;;5090584;28;20738;-72
2022/10/31 05:04:15;;;;;;;28.60;16.43;;;12.40;99.90;;;;;;5090434;28;20378;-70
2022/10/31 05:06:40;;;;;;;27.80;16.03;;;12.40;99.90;;;;;;5090497;28;20473;-72
2022/10/31 05:09:06;;;;;;;34.33;16.80;;;12.30;99.90;;;;;;5090522;28;20815;-70
2022/10/31 05:11:32;;;;;;;26.10;15.80;;;12.30;99.90;;;;;;5090310;28;20447;-71
2022/10/31 05:13:57;;;;;;;28.48;14.85;;;12.30;99.90;;;;;;5092338;28;20405;-72
2022/10/31 05:16:23;;;;;;;31.80;16.37;;;12.20;99.90;;;;;;5094559;28;20704;-72
2022/10/31 05:18:48;;;;;;;30.50;16.50;;;12.20;99.90;;;;;;5094359;28;20892;-71
2022/10/31 05:21:14;;;;;;;30.13;16.90;;;12.20;99.90;;;;;;5093994;28;20779;-70
2022/10/31 05:23:39;;;;;;;35.83;17.40;;;12.30;99.90;;;;;;5094010;28;20754;-71
2022/10/31 05:26:05;;;;;;;24.53;15.27;;;12.40;99.90;;;;;;5094499;28;20852;-73
2022/10/31 05:28:30;;;;;;;31.30;16.43;;;12.40;99.90;;;;;;5094596;28;20378;-71
2022/10/31 05:30:56;;;;;;;27.13;16.50;;;12.40;99.90;;;;;;5094875;28;20499;-72
2022/10/31 05:33:21;;;;;;;36.72;17.30;;;12.30;99.90;;;;;;5096054;28;20389;-73
2022/10/31 05:35:47;;;;;;;32.80;16.20;;;12.30;99.90;;;;;;5096665;28;20385;-73
2022/10/31 05:38:13;;;;;;;32.13;15.48;;;12.30;99.90;;;;;;5096254;28;20375;-73
2022/10/31 05:40:38;;;;;;;28.13;15.70;;;12.30;99.90;;;;;;5094356;28;20386;-73
2022/10/31 05:43:04;;;;;;;28.33;15.70;;;12.30;99.90;;;;;;5075377;28;20386;-73
2022/10/31 05:45:29;;;;;;;28.77;16.30;;;12.30;99.90;;;;;;5093845;28;20417;-73
2022/10/31 05:47:57;;;;;;;28.30;16.10;;;12.30;99.90;;;;;;5093484;28;20401;-72
2022/10/31 05:50:24;;;;;;;33.22;16.83;;;12.30;99.90;;;;;;5093757;28;20860;-72
2022/10/31 05:52:59;;;;;;;28.23;16.60;;;12.20;99.90;;;;;;5093175;28;20471;-72
2022/10/31 05:55:25;;;;;;;29.83;17.10;;;12.20;99.90;;;;;;5093801;28;20916;-72
2022/10/31 05:57:51;;;;;;;34.92;16.55;;;12.20;99.90;;;;;;5093588;28;20754;-71
2022/10/31 06:00:17;;;;;;;30.58;17.35;;;12.20;99.90;;;;;;5093439;28;20431;-73
2022/10/31 06:02:43;;;;;;;30.53;16.30;;;12.20;99.90;;;;;;5093161;28;20390;-72
2022/10/31 06:05:08;;;;;;;29.37;16.60;;;12.20;99.90;;;;;;5093789;28;21158;-73
2022/10/31 06:07:35;;;;;;;32.83;17.33;;;12.20;99.90;;;;;;5093904;28;20385;-72
2022/10/31 06:10:02;;;;;;;28.73;17.30;;;12.10;99.90;;;;;;5094033;28;20386;-73
2022/10/31 06:12:28;;;;;;;33.75;16.85;;;12.10;99.90;;;;;;5093310;28;20485;-73
2022/10/31 06:14:53;;;;;;;35.97;17.90;;;12.10;99.90;;;;;;5104747;28;20589;-71
2022/10/31 06:17:19;;;;;;;33.77;20.00;;;12.20;99.90;;;;;;5105545;28;20374;-71
2022/10/31 06:19:44;;;;;;;34.15;17.13;;;12.20;99.90;;;;;;5109448;28;20386;-72
2022/10/31 06:22:13;;;;;;;38.33;17.25;;;12.10;99.90;;;;;;5102402;28;20408;-72
2022/10/31 06:24:39;;;;;;;35.60;17.70;;;12.10;99.90;;;;;;5094000;28;20464;-71
2022/10/31 06:27:05;;;;;;;27.58;16.00;;;12.10;99.90;;;;;;5092964;28;20818;-72
2022/10/31 06:29:31;;;;;;;42.55;17.13;;;12.10;99.90;;;;;;5093115;28;20897;-73
2022/10/31 06:31:56;;;;;;;33.75;18.30;;;12.10;99.90;;;;;;5092695;28;20389;-71
2022/10/31 06:34:22;;;;;;;36.10;19.10;;;12.10;99.90;;;;;;5094277;28;20401;-73
2022/10/31 06:36:48;;;;;;;32.65;17.23;;;12.20;99.90;;;;;;5095578;28;20470;-72
2022/10/31 06:39:14;;;;;;;31.10;16.85;;;12.30;99.90;;;;;;5095748;28;20400;-71
2022/10/31 06:41:41;;;;;;;29.08;17.00;;;12.20;99.90;;;;;;5095352;28;20386;-72
2022/10/31 06:44:07;;;;;;;33.20;17.27;;;12.20;99.90;;;;;;5093653;28;20499;-72
2022/10/31 06:46:33;;;;;;;31.25;17.95;;;12.40;99.90;;;;;;5092876;28;20390;-72
2022/10/31 06:48:58;;;;;;;36.85;18.02;;;12.30;99.90;;;;;;5092929;28;20376;-72
2022/10/31 06:51:24;;;;;;;42.33;19.13;;;12.20;99.90;;;;;;5093143;28;20390;-72
2022/10/31 06:53:49;;;;;;;38.67;19.50;;;12.20;99.90;;;;;;5092959;28;20878;-72
2022/10/31 06:56:15;;;;;;;31.70;18.73;;;12.20;99.90;;;;;;5093115;28;20882;-72
2022/10/31 06:58:40;;;;;;;36.33;19.30;;;12.30;99.90;;;;;;5092568;28;20389;-72
2022/10/31 07:01:06;;;;;;;36.23;17.90;;;12.40;99.90;;;;;;5092604;28;20418;-72
2022/10/31 07:03:32;;;;;;;31.30;18.40;;;12.50;99.90;;;;;;5093089;28;20385;-71
2022/10/31 07:05:57;;;;;;;36.05;18.00;;;12.40;99.90;;;;;;5092195;28;20390;-73
2022/10/31 07:08:23;;;;;;;35.30;18.10;;;12.40;99.90;;;;;;5092286;28;20382;-72
2022/10/31 07:10:54;;;;;;;34.30;18.95;;;12.40;99.90;;;;;;5092430;28;20766;-72
2022/10/31 07:13:25;;;;;;;33.22;17.90;;;12.50;99.90;;;;;;5091980;28;20382;-73
2022/10/31 07:15:55;;;;;;;30.23;17.33;;;12.50;99.90;;;;;;5092006;28;20866;-72
2022/10/31 07:18:21;;;;;;;31.00;18.10;;;12.60;99.90;;;;;;5092305;28;20413;-71
2022/10/31 07:20:47;;;;;;;27.73;17.50;;;12.80;99.90;;;;;;5092323;28;20886;-72
2022/10/31 07:23:13;;;;;;;29.00;17.60;;;12.90;99.90;;;;;;5091811;28;20381;-73
2022/10/31 07:25:39;;;;;;;34.40;17.60;;;12.80;99.90;;;;;;5092619;28;20379;-73
2022/10/31 07:28:05;;;;;;;33.60;17.20;;;12.90;99.90;;;;;;5093620;28;20735;-73
2022/10/31 07:30:31;;;;;;;29.95;18.40;;;12.80;99.90;;;;;;5093196;28;20750;-71
2022/10/31 07:32:57;;;;;;;35.65;18.40;;;12.80;99.90;;;;;;5072938;28;20406;-72
2022/10/31 07:35:25;;;;;;;35.23;19.13;;;12.90;99.90;;;;;;5092008;28;20431;-70
2022/10/31 07:37:51;;;;;;;28.65;17.80;;;13.00;99.90;;;;;;5091860;28;20536;-73
2022/10/31 07:40:17;;;;;;;29.40;17.47;;;12.90;99.90;;;;;;5091207;28;20394;-73
2022/10/31 07:42:47;;;;;;;28.58;16.95;;;12.90;99.90;;;;;;5091570;28;20405;-72
2022/10/31 07:45:16;;;;;;;34.72;19.20;;;13.00;99.90;;;;;;5091975;28;20397;-73
2022/10/31 07:47:46;;;;;;;32.95;19.13;;;13.10;99.90;;;;;;5096816;28;20485;-74
2022/10/31 07:50:14;;;;;;;37.67;19.45;;;13.10;99.90;;;;;;5095368;28;20465;-72
2022/10/31 07:52:40;;;;;;;35.95;19.90;;;13.10;99.90;;;;;;5091571;28;20493;-72
2022/10/31 07:55:06;;;;;;;32.60;20.37;;;13.20;99.90;;;;;;5091740;28;20506;-72
2022/10/31 07:57:32;;;;;;;33.47;19.97;;;13.30;99.90;;;;;;5099631;28;20386;-71
2022/10/31 07:59:57;;;;;;;36.70;19.60;;;13.40;99.90;;;;;;5087100;28;20393;-71
2022/10/31 08:02:24;;;;;;;35.20;18.90;;;13.50;99.90;;;;;;5104408;28;20401;-72
2022/10/31 08:04:49;;;;;;;31.83;18.23;;;13.70;99.90;;;;;;5091651;28;20382;-74
2022/10/31 08:07:15;;;;;;;46.42;21.67;;;13.80;99.90;;;;;;5089295;28;20747;-73
2022/10/31 08:09:41;;;;;;;43.10;21.40;;;13.90;99.90;;;;;;5088704;28;20409;-72
2022/10/31 08:12:06;;;;;;;38.80;20.20;;;14.00;99.90;;;;;;5088947;28;20516;-74
2022/10/31 08:14:32;;;;;;;39.93;21.03;;;14.10;99.90;;;;;;5088735;28;20515;-72
2022/10/31 08:16:58;;;;;;;35.67;20.20;;;14.20;99.90;;;;;;5088935;28;20399;-72
2022/10/31 08:19:23;;;;;;;39.00;20.13;;;14.40;99.20;;;;;;5089041;28;20892;-72
2022/10/31 08:21:54;;;;;;;47.73;22.73;;;14.40;98.00;;;;;;5086374;28;20963;-72
2022/10/31 08:24:23;;;;;;;35.83;20.10;;;14.60;95.10;;;;;;5090483;28;20390;-72
2022/10/31 08:26:49;;;;;;;39.72;21.00;;;14.70;91.90;;;;;;5090069;28;20429;-73
2022/10/31 08:29:14;;;;;;;51.80;22.20;;;14.80;91.60;;;;;;5071465;28;20397;-73
2022/10/31 08:31:44;;;;;;;36.85;20.58;;;14.80;90.80;;;;;;5071345;28;20409;-72
2022/10/31 08:34:11;;;;;;;39.25;21.67;;;14.90;90.00;;;;;;5087790;28;20481;-73
2022/10/31 08:36:36;;;;;;;33.67;19.98;;;15.00;87.70;;;;;;5089050;28;20443;-73
2022/10/31 08:39:02;;;;;;;44.50;21.50;;;15.20;84.70;;;;;;5088832;28;20374;-71
2022/10/31 08:41:28;;;;;;;40.20;20.43;;;15.30;80.20;;;;;;5053720;28;20475;-73
2022/10/31 08:43:54;;;;;;;46.05;20.60;;;15.30;79.70;;;;;;5088849;28;20947;-72
2022/10/31 08:46:20;;;;;;;38.47;18.67;;;15.40;77.80;;;;;;5071313;28;20394;-73
2022/10/31 08:48:48;;;;;;;35.97;19.40;;;15.40;77.40;;;;;;5097073;28;20421;-73
2022/10/31 08:51:14;;;;;;;37.55;19.27;;;15.40;73.80;;;;;;5103593;28;20839;-73
2022/10/31 08:53:40;;;;;;;40.40;19.55;;;15.40;75.20;;;;;;5109094;22;20948;-76
2022/10/31 08:56:05;;;;;;;41.55;19.13;;;15.40;74.20;;;;;;5092721;28;20393;-75
2022/10/31 08:58:31;;;;;;;37.60;19.40;;;15.50;73.80;;;;;;5092136;28;20869;-75
2022/10/31 09:00:59;;;;;;;38.73;19.17;;;15.50;71.50;;;;;;5090842;28;20438;-78
2022/10/31 09:03:27;;;;;;;38.95;20.10;;;15.50;71.60;;;;;;5083961;28;20832;-76
2022/10/31 09:06:02;;;;;;;34.50;18.80;;;15.50;70.50;;;;;;5092505;28;20374;-77
2022/10/31 09:08:30;;;;;;;38.75;19.80;;;15.50;69.30;;;;;;5094599;28;20627;-76
2022/10/31 09:10:59;;;;;;;32.90;17.98;;;15.50;69.00;;;;;;5096238;28;20393;-76
2022/10/31 09:13:24;;;;;;;35.10;18.15;;;15.60;67.60;;;;;;5102286;28;20535;-74
2022/10/31 09:15:51;;;;;;;38.80;19.42;;;15.60;68.20;;;;;;5098526;28;20413;-76
2022/10/31 09:18:21;;;;;;;35.80;17.27;;;15.70;67.60;;;;;;5076406;28;20382;-76
2022/10/31 09:20:48;;;;;;;39.58;18.40;;;15.80;64.90;;;;;;5100652;28;20409;-77
2022/10/31 09:23:19;;;;;;;33.55;17.77;;;16.00;64.20;;;;;;5086877;28;20379;-76
2022/10/31 09:25:47;;;;;;;31.92;17.23;;;16.30;62.00;;;;;;5075155;28;20402;-77
2022/10/31 09:28:15;;;;;;;41.80;18.08;;;16.40;60.00;;;;;;5074387;28;20403;-77
2022/10/31 09:30:41;;;;;;;32.58;18.05;;;16.50;59.30;;;;;;5083591;28;20386;-77
2022/10/31 09:33:10;;;;;;;31.58;18.10;;;16.60;58.60;;;;;;5093876;28;20375;-76
2022/10/31 09:35:36;;;;;;;36.50;17.30;;;16.70;58.50;;;;;;5094160;28;20381;-76
2022/10/31 09:38:08;;;;;;;35.70;18.52;;;16.70;57.20;;;;;;5094158;28;20453;-76
2022/10/31 09:40:53;;;;;;;36.20;17.90;;;16.80;57.20;;;;;;5093669;28;20378;-77
2022/10/31 09:43:37;;;;;;;38.30;18.60;;;17.00;56.40;;;;;;5075674;28;20390;-76
2022/10/31 09:46:20;;;;;;;33.55;17.92;;;17.20;55.30;;;;;;5094111;28;20885;-77
2022/10/31 09:48:49;;;;;;;47.10;19.60;;;17.40;53.80;;;;;;5093383;28;20861;-76
2022/10/31 09:51:14;;;;;;;30.13;16.90;;;17.80;51.50;;;;;;5074789;28;20418;-76
2022/10/31 09:53:46;;;;;;;33.00;18.13;;;18.00;49.60;;;;;;5093314;28;20394;-77
2022/10/31 09:56:18;;;;;;;43.17;18.25;;;18.10;48.50;;;;;;5094146;28;20722;-76
2022/10/31 09:58:47;;;;;;;33.72;17.38;;;18.30;46.20;;;;;;5093762;28;20792;-76
2022/10/31 10:01:37;;;;;;;44.17;18.75;;;18.10;46.90;;;;;;5091814;28;20402;-76
2022/10/31 10:04:31;;;;;;;35.73;17.77;;;18.00;48.40;;;;;;5093630;28;20377;-76
2022/10/31 10:06:58;;;;;;;34.88;18.00;;;17.80;50.00;;;;;;5093393;28;20789;-76
2022/10/31 10:09:27;;;;;;;35.30;17.98;;;17.80;51.00;;;;;;5093009;28;20454;-75
2022/10/31 10:12:07;;;;;;;36.50;17.73;;;17.70;51.80;;;;;;5093297;28;20402;-77
2022/10/31 10:14:44;;;;;;;30.70;18.15;;;17.70;52.10;;;;;;5092848;28;20386;-76
2022/10/31 10:18:05;;;;;;;43.38;19.30;;;17.70;52.40;;;;;;5093233;28;20382;-76
2022/10/31 10:21:11;;;;;;;50.55;19.80;;;17.80;51.60;;;;;;4991058;28;20406;-76
2022/10/31 10:23:57;;;;;;;36.80;18.85;;;18.20;49.90;;;;;;5010196;28;20897;-76
2022/10/31 10:26:34;;;;;;;36.00;18.75;;;18.40;48.10;;;;;;5090424;28;20392;-76
2022/10/31 10:29:18;;;;;;;44.10;18.20;;;18.40;47.80;;;;;;5091352;28;20404;-73
2022/10/31 10:31:48;;;;;;;35.60;18.17;;;18.50;46.90;;;;;;5083086;28;20488;-74
2022/10/31 10:34:26;;;;;;;34.50;17.70;;;18.50;46.90;;;;;;5101971;28;20440;-75
2022/10/31 10:36:57;;;;;;;33.45;17.33;;;18.50;46.80;;;;;;5092933;28;20704;-75
2022/10/31 10:39:29;;;;;;;37.45;17.40;;;18.70;45.70;;;;;;5087963;28;20397;-75
2022/10/31 10:47:43;;;;;;;34.47;16.52;;;18.90;42.40;;;;;;5095680;28;20389;-75
2022/10/31 10:50:22;;;;;;;30.10;16.00;;;19.10;41.70;;;;;;5093296;28;20381;-76
2022/10/31 10:53:34;;;;;;;28.17;14.80;;;19.20;40.60;;;;;;5092026;28;20394;-75
2022/10/31 10:56:20;;;;;;;32.95;15.30;;;19.30;40.40;;;;;;5078699;28;20769;-77
2022/10/31 10:58:46;;;;;;;44.58;15.75;;;19.30;40.50;;;;;;5092889;28;20461;-77
2022/10/31 11:01:13;;;;;;;34.20;14.90;;;19.20;41.70;;;;;;5073893;28;20957;-75
2022/10/31 11:03:39;;;;;;;27.52;14.40;;;19.20;41.00;;;;;;5092162;28;20873;-74
2022/10/31 11:06:17;;;;;;;32.67;15.40;;;19.20;41.60;;;;;;5092005;28;20459;-74
2022/10/31 11:08:43;;;;;;;32.60;15.40;;;19.30;41.30;;;;;;5091417;28;20770;-74
2022/10/31 11:11:17;;;;;;;31.53;13.90;;;19.40;40.10;;;;;;5091547;28;20501;-74
2022/10/31 11:13:48;;;;;;;31.10;14.60;;;19.60;39.30;;;;;;5091787;28;20418;-74
2022/10/31 11:16:28;;;;;;;26.83;14.05;;;19.80;39.10;;;;;;5071926;28;20503;-73
2022/10/31 11:19:04;;;;;;;33.60;14.30;;;19.90;37.60;;;;;;5074640;28;20396;-75
2022/10/31 11:21:33;;;;;;;33.92;14.27;;;20.10;38.10;;;;;;5098688;28;20766;-72
2022/10/31 11:24:10;;;;;;;23.63;14.07;;;20.20;36.90;;;;;;5073818;28;20389;-73
2022/10/31 11:26:37;;;;;;;28.38;15.10;;;20.20;36.70;;;;;;5092759;28;20382;-74
2022/10/31 11:29:05;;;;;;;25.43;14.37;;;20.20;36.90;;;;;;5095199;28;20398;-75
2022/10/31 11:31:34;;;;;;;26.85;13.75;;;20.30;37.00;;;;;;5099853;28;20433;-75
2022/10/31 11:34:06;;;;;;;33.50;14.60;;;20.30;36.20;;;;;;5093339;28;20465;-73
2022/10/31 11:36:37;;;;;;;28.73;14.32;;;20.40;35.60;;;;;;5092225;28;20386;-72
2022/10/31 11:39:06;;;;;;;32.33;13.80;;;20.40;35.60;;;;;;5091755;28;20383;-73
2022/10/31 11:41:39;;;;;;;31.77;13.05;;;20.50;36.10;;;;;;5091853;28;20542;-75
2022/10/31 11:44:16;;;;;;;26.67;12.98;;;20.50;34.90;;;;;;5091945;28;20898;-75
2022/10/31 11:46:48;;;;;;;25.83;12.60;;;20.60;34.60;;;;;;5091185;28;20401;-74
2022/10/31 11:49:20;;;;;;;31.13;13.57;;;20.50;34.90;;;;;;5092481;28;20723;-73
2022/10/31 11:51:52;;;;;;;34.30;12.30;;;20.60;34.80;;;;;;5093378;28;20514;-75
2022/10/31 11:54:28;;;;;;;26.25;12.25;;;20.60;34.50;;;;;;5091444;28;20449;-75
2022/10/31 11:56:54;;;;;;;22.90;12.57;;;20.70;35.00;;;;;;5091292;28;20394;-75
2022/10/31 11:59:31;;;;;;;42.20;14.90;;;20.80;34.30;;;;;;5091168;28;20873;-73
2022/10/31 12:01:59;;;;;;;25.93;12.03;;;20.80;34.30;;;;;;5091669;28;20457;-75
2022/10/31 12:04:41;;;;;;;22.00;11.93;;;20.80;34.00;;;;;;5091514;28;20382;-74
2022/10/31 12:07:07;;;;;;;32.50;11.83;;;20.80;33.80;;;;;;5091504;28;20460;-74
2022/10/31 12:09:34;;;;;;;25.60;11.00;;;20.80;33.90;;;;;;5090974;28;20474;-74
2022/10/31 12:12:24;;;;;;;26.48;10.98;;;20.80;34.20;;;;;;5092834;28;20412;-74
2022/10/31 12:15:22;;;;;;;21.23;10.63;;;20.90;33.90;;;;;;5091002;28;20374;-74
2022/10/31 12:17:54;;;;;;;27.85;10.07;;;21.00;32.90;;;;;;5077101;28;20386;-75
2022/10/31 12:20:39;;;;;;;26.20;10.23;;;21.00;31.90;;;;;;5091291;28;20409;-74
2022/10/31 12:23:25;;;;;;;17.88;9.25;;;21.00;32.50;;;;;;5090041;28;20382;-74
2022/10/31 12:26:24;;;;;;;21.63;9.77;;;21.00;32.30;;;;;;5090988;28;20382;-74
2022/10/31 12:29:13;;;;;;;25.88;10.00;;;21.30;31.10;;;;;;5090656;28;20418;-74
2022/10/31 12:31:49;;;;;;;21.27;9.20;;;21.20;30.40;;;;;;5090404;28;20398;-75
2022/10/31 12:34:37;;;;;;;23.45;8.40;;;21.30;29.50;;;;;;5090874;28;20374;-75
2022/10/31 12:37:20;;;;;;;24.05;8.05;;;21.30;29.60;;;;;;5090813;28;20385;-74
2022/10/31 12:40:00;;;;;;;28.50;9.63;;;21.30;29.20;;;;;;5090833;28;20403;-76
2022/10/31 12:42:44;;;;;;;21.55;7.93;;;21.30;29.70;;;;;;5090888;28;21015;-75
2022/10/31 12:45:12;;;;;;;22.58;7.75;;;21.40;28.40;;;;;;5091299;28;20394;-75
2022/10/31 12:47:38;;;;;;;24.08;8.20;;;21.40;29.00;;;;;;5091357;28;20742;-75
2022/10/31 12:50:06;;;;;;;20.80;7.67;;;21.40;28.60;;;;;;5091153;28;20394;-75